sensor_id;sensor_type;location;lat;lon;timestamp;pressure;altitude;pressure_sealevel;temperature;humidity
61436;BME280;47304;47.456;19.160;2023-02-23T00:01:22;100302.35;;;7.92;58.37
61436;BME280;47304;47.456;19.160;2023-02-23T00:03:50;100305.98;;;7.90;58.44
61436;BME280;47304;47.456;19.160;2023-02-23T00:06:17;100299.85;;;7.88;58.40
61436;BME280;47304;47.456;19.160;2023-02-23T00:08:44;100302.99;;;7.87;58.43
61436;BME280;47304;47.456;19.160;2023-02-23T00:11:11;100299.83;;;7.85;58.67
61436;BME280;47304;47.456;19.160;2023-02-23T00:13:38;100300.69;;;7.84;58.81
61436;BME280;47304;47.456;19.160;2023-02-23T00:16:14;100302.60;;;7.83;58.83
61436;BME280;47304;47.456;19.160;2023-02-23T00:18:42;100301.55;;;7.83;58.66
61436;BME280;47304;47.456;19.160;2023-02-23T00:21:30;100302.61;;;7.84;58.61
61436;BME280;47304;47.456;19.160;2023-02-23T00:24:02;100303.12;;;7.82;58.53
61436;BME280;47304;47.456;19.160;2023-02-23T00:26:31;100301.71;;;7.81;58.58
61436;BME280;47304;47.456;19.160;2023-02-23T00:28:57;100302.73;;;7.79;58.50
61436;BME280;47304;47.456;19.160;2023-02-23T00:31:25;100305.35;;;7.78;58.28
61436;BME280;47304;47.456;19.160;2023-02-23T00:33:53;100304.99;;;7.78;58.52
61436;BME280;47304;47.456;19.160;2023-02-23T00:36:23;100305.34;;;7.77;58.57
61436;BME280;47304;47.456;19.160;2023-02-23T00:38:57;100308.65;;;7.78;58.57
61436;BME280;47304;47.456;19.160;2023-02-23T00:41:25;100303.61;;;7.78;58.66
61436;BME280;47304;47.456;19.160;2023-02-23T00:43:51;100302.20;;;7.78;58.43
61436;BME280;47304;47.456;19.160;2023-02-23T00:46:19;100298.89;;;7.78;58.44
61436;BME280;47304;47.456;19.160;2023-02-23T00:48:48;100303.05;;;7.76;58.53
61436;BME280;47304;47.456;19.160;2023-02-23T00:51:16;100304.60;;;7.74;58.40
61436;BME280;47304;47.456;19.160;2023-02-23T00:53:44;100305.47;;;7.73;58.60
61436;BME280;47304;47.456;19.160;2023-02-23T00:56:13;100304.75;;;7.71;58.41
61436;BME280;47304;47.456;19.160;2023-02-23T00:58:40;100308.40;;;7.71;58.28
61436;BME280;47304;47.456;19.160;2023-02-23T01:01:11;100307.35;;;7.69;58.35
61436;BME280;47304;47.456;19.160;2023-02-23T01:03:40;100308.91;;;7.68;58.51
61436;BME280;47304;47.456;19.160;2023-02-23T01:06:10;100307.68;;;7.68;58.45
61436;BME280;47304;47.456;19.160;2023-02-23T01:08:39;100307.15;;;7.68;58.36
61436;BME280;47304;47.456;19.160;2023-02-23T01:11:08;100307.13;;;7.66;58.22
61436;BME280;47304;47.456;19.160;2023-02-23T01:13:35;100305.19;;;7.62;58.20
61436;BME280;47304;47.456;19.160;2023-02-23T01:16:11;100305.70;;;7.61;58.38
61436;BME280;47304;47.456;19.160;2023-02-23T01:18:39;100304.46;;;7.59;58.47
61436;BME280;47304;47.456;19.160;2023-02-23T01:21:21;100306.52;;;7.57;58.51
61436;BME280;47304;47.456;19.160;2023-02-23T01:23:49;100313.64;;;7.55;58.45
61436;BME280;47304;47.456;19.160;2023-02-23T01:26:21;100310.14;;;7.53;58.38
61436;BME280;47304;47.456;19.160;2023-02-23T01:29:14;100308.20;;;7.52;58.45
61436;BME280;47304;47.456;19.160;2023-02-23T01:31:44;100309.60;;;7.52;58.19
61436;BME280;47304;47.456;19.160;2023-02-23T01:34:13;100305.05;;;7.51;58.23
61436;BME280;47304;47.456;19.160;2023-02-23T01:36:41;100302.96;;;7.50;58.31
61436;BME280;47304;47.456;19.160;2023-02-23T01:39:13;100305.92;;;7.49;58.38
61436;BME280;47304;47.456;19.160;2023-02-23T01:41:40;100305.20;;;7.48;58.46
61436;BME280;47304;47.456;19.160;2023-02-23T01:46:56;100298.57;;;7.46;58.86
61436;BME280;47304;47.456;19.160;2023-02-23T01:49:27;100298.73;;;7.46;58.77
61436;BME280;47304;47.456;19.160;2023-02-23T01:52:02;100298.20;;;7.45;58.71
61436;BME280;47304;47.456;19.160;2023-02-23T01:54:35;100296.30;;;7.45;58.87
61436;BME280;47304;47.456;19.160;2023-02-23T01:57:03;100300.66;;;7.46;58.61
61436;BME280;47304;47.456;19.160;2023-02-23T01:59:36;100295.77;;;7.46;58.59
61436;BME280;47304;47.456;19.160;2023-02-23T02:02:03;100296.13;;;7.46;58.51
61436;BME280;47304;47.456;19.160;2023-02-23T02:04:31;100292.84;;;7.48;58.61
61436;BME280;47304;47.456;19.160;2023-02-23T02:06:59;100293.19;;;7.49;58.59
61436;BME280;47304;47.456;19.160;2023-02-23T02:09:26;100295.09;;;7.47;58.43
61436;BME280;47304;47.456;19.160;2023-02-23T02:11:53;100290.20;;;7.47;58.54
61436;BME280;47304;47.456;19.160;2023-02-23T02:14:21;100289.86;;;7.48;58.65
61436;BME280;47304;47.456;19.160;2023-02-23T02:22:59;100295.91;;;7.42;58.08
61436;BME280;47304;47.456;19.160;2023-02-23T02:30:42;100287.39;;;7.44;58.50
61436;BME280;47304;47.456;19.160;2023-02-23T02:39:14;100290.36;;;7.45;58.16
61436;BME280;47304;47.456;19.160;2023-02-23T02:42:35;100293.48;;;7.44;57.95
61436;BME280;47304;47.456;19.160;2023-02-23T02:47:43;100296.24;;;7.42;57.98
61436;BME280;47304;47.456;19.160;2023-02-23T02:50:30;100294.15;;;7.42;58.16
61436;BME280;47304;47.456;19.160;2023-02-23T02:53:04;100291.71;;;7.42;58.21
61436;BME280;47304;47.456;19.160;2023-02-23T02:55:33;100295.20;;;7.41;58.40
61436;BME280;47304;47.456;19.160;2023-02-23T02:58:04;100299.90;;;7.41;58.58
61436;BME280;47304;47.456;19.160;2023-02-23T03:03:05;100303.38;;;7.41;58.34
61436;BME280;47304;47.456;19.160;2023-02-23T03:05:44;100301.64;;;7.42;58.48
61436;BME280;47304;47.456;19.160;2023-02-23T03:08:38;100301.48;;;7.42;58.24
61436;BME280;47304;47.456;19.160;2023-02-23T03:11:11;100304.79;;;7.42;58.40
61436;BME280;47304;47.456;19.160;2023-02-23T03:19:17;100307.27;;;7.44;58.35
61436;BME280;47304;47.456;19.160;2023-02-23T03:21:59;100308.13;;;7.44;58.51
61436;BME280;47304;47.456;19.160;2023-02-23T03:27:28;100311.08;;;7.43;58.19
61436;BME280;47304;47.456;19.160;2023-02-23T03:29:59;100314.55;;;7.42;58.22
61436;BME280;47304;47.456;19.160;2023-02-23T03:32:32;100315.73;;;7.39;58.32
61436;BME280;47304;47.456;19.160;2023-02-23T03:35:08;100312.58;;;7.39;58.28
61436;BME280;47304;47.456;19.160;2023-02-23T03:37:55;100313.97;;;7.37;58.14
61436;BME280;47304;47.456;19.160;2023-02-23T03:40:29;100316.20;;;7.34;58.19
61436;BME280;47304;47.456;19.160;2023-02-23T03:42:59;100317.23;;;7.33;58.18
61436;BME280;47304;47.456;19.160;2023-02-23T03:45:29;100316.19;;;7.32;58.11
61436;BME280;47304;47.456;19.160;2023-02-23T03:47:58;100319.49;;;7.32;58.25
61436;BME280;47304;47.456;19.160;2023-02-23T03:50:41;100317.41;;;7.33;58.27
61436;BME280;47304;47.456;19.160;2023-02-23T03:53:09;100320.35;;;7.32;58.32
61436;BME280;47304;47.456;19.160;2023-02-23T03:55:42;100315.96;;;7.28;58.26
61436;BME280;47304;47.456;19.160;2023-02-23T03:58:17;100319.42;;;7.27;58.47
61436;BME280;47304;47.456;19.160;2023-02-23T04:00:47;100320.81;;;7.26;58.53
61436;BME280;47304;47.456;19.160;2023-02-23T04:03:17;100318.55;;;7.25;58.51
61436;BME280;47304;47.456;19.160;2023-02-23T04:05:46;100322.55;;;7.26;58.51
61436;BME280;47304;47.456;19.160;2023-02-23T04:08:16;100317.48;;;7.25;58.52
61436;BME280;47304;47.456;19.160;2023-02-23T04:10:50;100317.84;;;7.25;58.53
61436;BME280;47304;47.456;19.160;2023-02-23T04:13:23;100322.88;;;7.25;58.56
61436;BME280;47304;47.456;19.160;2023-02-23T04:15:59;100320.09;;;7.25;58.64
61436;BME280;47304;47.456;19.160;2023-02-23T04:18:32;100318.86;;;7.24;58.43
61436;BME280;47304;47.456;19.160;2023-02-23T04:21:00;100320.77;;;7.22;58.44
61436;BME280;47304;47.456;19.160;2023-02-23T04:23:28;100316.02;;;7.21;58.59
61436;BME280;47304;47.456;19.160;2023-02-23T04:25:55;100318.46;;;7.20;58.46
61436;BME280;47304;47.456;19.160;2023-02-23T04:28:23;100320.89;;;7.19;58.45
61436;BME280;47304;47.456;19.160;2023-02-23T04:30:49;100319.48;;;7.18;58.46
61436;BME280;47304;47.456;19.160;2023-02-23T04:33:16;100319.46;;;7.16;58.54
61436;BME280;47304;47.456;19.160;2023-02-23T04:35:43;100319.58;;;7.12;58.53
61436;BME280;47304;47.456;19.160;2023-02-23T04:38:09;100321.11;;;7.08;58.36
61436;BME280;47304;47.456;19.160;2023-02-23T04:40:36;100324.91;;;7.06;58.60
61436;BME280;47304;47.456;19.160;2023-02-23T04:43:02;100323.84;;;7.05;58.45
61436;BME280;47304;47.456;19.160;2023-02-23T04:45:29;100325.74;;;7.04;58.35
61436;BME280;47304;47.456;19.160;2023-02-23T04:47:55;100325.75;;;7.03;58.40
61436;BME280;47304;47.456;19.160;2023-02-23T04:50:22;100326.27;;;7.03;58.58
61436;BME280;47304;47.456;19.160;2023-02-23T04:52:49;100327.84;;;7.03;58.28
61436;BME280;47304;47.456;19.160;2023-02-23T04:55:21;100329.57;;;7.02;58.20
61436;BME280;47304;47.456;19.160;2023-02-23T04:57:48;100329.39;;;7.02;58.28
61436;BME280;47304;47.456;19.160;2023-02-23T05:00:16;100328.50;;;7.01;58.36
61436;BME280;47304;47.456;19.160;2023-02-23T05:02:43;100325.73;;;7.01;58.03
61436;BME280;47304;47.456;19.160;2023-02-23T05:05:09;100323.98;;;7.01;57.72
61436;BME280;47304;47.456;19.160;2023-02-23T05:07:36;100326.05;;;7.00;57.58
61436;BME280;47304;47.456;19.160;2023-02-23T05:10:04;100328.30;;;6.99;57.62
61436;BME280;47304;47.456;19.160;2023-02-23T05:12:31;100328.66;;;7.00;57.64
61436;BME280;47304;47.456;19.160;2023-02-23T05:14:58;100329.52;;;7.00;57.38
61436;BME280;47304;47.456;19.160;2023-02-23T05:17:24;100332.66;;;7.00;57.31
61436;BME280;47304;47.456;19.160;2023-02-23T05:19:51;100338.58;;;6.99;57.25
61436;BME280;47304;47.456;19.160;2023-02-23T05:22:18;100337.52;;;6.97;57.19
61436;BME280;47304;47.456;19.160;2023-02-23T05:24:44;100335.91;;;6.95;57.15
61436;BME280;47304;47.456;19.160;2023-02-23T05:27:11;100338.34;;;6.93;57.20
61436;BME280;47304;47.456;19.160;2023-02-23T05:29:38;100339.86;;;6.91;57.08
61436;BME280;47304;47.456;19.160;2023-02-23T05:32:04;100340.16;;;6.87;57.22
61436;BME280;47304;47.456;19.160;2023-02-23T05:34:31;100337.31;;;6.83;57.27
61436;BME280;47304;47.456;19.160;2023-02-23T05:36:58;100338.31;;;6.80;57.29
61436;BME280;47304;47.456;19.160;2023-02-23T05:39:24;100341.58;;;6.77;57.26
61436;BME280;47304;47.456;19.160;2023-02-23T05:41:54;100337.35;;;6.74;57.24
61436;BME280;47304;47.456;19.160;2023-02-23T05:44:20;100338.19;;;6.71;57.37
61436;BME280;47304;47.456;19.160;2023-02-23T05:46:47;100339.23;;;6.71;57.34
61436;BME280;47304;47.456;19.160;2023-02-23T05:49:13;100338.35;;;6.70;57.36
61436;BME280;47304;47.456;19.160;2023-02-23T05:51:40;100340.23;;;6.68;57.32
61436;BME280;47304;47.456;19.160;2023-02-23T05:54:08;100340.02;;;6.65;57.39
61436;BME280;47304;47.456;19.160;2023-02-23T05:56:34;100343.63;;;6.63;57.62
61436;BME280;47304;47.456;19.160;2023-02-23T05:59:01;100348.67;;;6.63;57.36
61436;BME280;47304;47.456;19.160;2023-02-23T06:01:27;100349.52;;;6.61;57.46
61436;BME280;47304;47.456;19.160;2023-02-23T06:03:54;100353.15;;;6.59;57.47
61436;BME280;47304;47.456;19.160;2023-02-23T06:06:22;100355.76;;;6.59;57.65
61436;BME280;47304;47.456;19.160;2023-02-23T06:08:48;100354.58;;;6.61;57.68
61436;BME280;47304;47.456;19.160;2023-02-23T06:11:15;100356.68;;;6.63;57.60
61436;BME280;47304;47.456;19.160;2023-02-23T06:13:42;100361.10;;;6.67;57.80
61436;BME280;47304;47.456;19.160;2023-02-23T06:16:08;100359.77;;;6.70;57.91
61436;BME280;47304;47.456;19.160;2023-02-23T06:18:35;100366.58;;;6.73;58.05
61436;BME280;47304;47.456;19.160;2023-02-23T06:21:02;100367.83;;;6.74;58.10
61436;BME280;47304;47.456;19.160;2023-02-23T06:23:30;100372.05;;;6.78;58.04
61436;BME280;47304;47.456;19.160;2023-02-23T06:25:57;100374.71;;;6.81;57.59
61436;BME280;47304;47.456;19.160;2023-02-23T06:28:25;100377.55;;;6.84;57.56
61436;BME280;47304;47.456;19.160;2023-02-23T06:30:52;100382.81;;;6.87;57.43
61436;BME280;47304;47.456;19.160;2023-02-23T06:33:20;100382.33;;;6.89;57.53
61436;BME280;47304;47.456;19.160;2023-02-23T06:35:46;100388.27;;;6.91;57.30
61436;BME280;47304;47.456;19.160;2023-02-23T06:38:13;100388.51;;;6.94;57.32
61436;BME280;47304;47.456;19.160;2023-02-23T06:40:39;100390.10;;;6.97;57.39
61436;BME280;47304;47.456;19.160;2023-02-23T06:43:06;100390.83;;;6.99;57.40
61436;BME280;47304;47.456;19.160;2023-02-23T06:45:32;100393.83;;;7.01;57.29
61436;BME280;47304;47.456;19.160;2023-02-23T06:48:00;100394.06;;;7.06;57.08
61436;BME280;47304;47.456;19.160;2023-02-23T06:50:26;100398.29;;;7.09;56.99
61436;BME280;47304;47.456;19.160;2023-02-23T06:52:53;100398.65;;;7.11;56.97
61436;BME280;47304;47.456;19.160;2023-02-23T06:55:20;100398.16;;;7.13;56.66
61436;BME280;47304;47.456;19.160;2023-02-23T06:57:48;100401.73;;;7.18;56.51
61436;BME280;47304;47.456;19.160;2023-02-23T07:00:15;100402.83;;;7.23;56.45
61436;BME280;47304;47.456;19.160;2023-02-23T07:02:43;100404.29;;;7.28;56.48
61436;BME280;47304;47.456;19.160;2023-02-23T07:05:10;100406.09;;;7.32;56.43
61436;BME280;47304;47.456;19.160;2023-02-23T07:07:37;100408.27;;;7.38;56.02
61436;BME280;47304;47.456;19.160;2023-02-23T07:10:04;100410.73;;;7.40;55.64
61436;BME280;47304;47.456;19.160;2023-02-23T07:12:31;100412.88;;;7.44;55.36
61436;BME280;47304;47.456;19.160;2023-02-23T07:14:58;100411.85;;;7.45;54.99
61436;BME280;47304;47.456;19.160;2023-02-23T07:17:24;100416.04;;;7.45;54.82
61436;BME280;47304;47.456;19.160;2023-02-23T07:19:51;100411.31;;;7.44;54.62
61436;BME280;47304;47.456;19.160;2023-02-23T07:22:18;100416.23;;;7.48;54.71
61436;BME280;47304;47.456;19.160;2023-02-23T07:24:44;100415.92;;;7.50;54.50
61436;BME280;47304;47.456;19.160;2023-02-23T07:27:11;100412.62;;;7.52;54.51
61436;BME280;47304;47.456;19.160;2023-02-23T07:29:37;100416.67;;;7.55;54.20
61436;BME280;47304;47.456;19.160;2023-02-23T07:32:04;100415.64;;;7.57;54.14
61436;BME280;47304;47.456;19.160;2023-02-23T07:34:31;100418.98;;;7.58;54.19
61436;BME280;47304;47.456;19.160;2023-02-23T07:36:57;100415.34;;;7.59;54.05
61436;BME280;47304;47.456;19.160;2023-02-23T07:39:24;100422.36;;;7.63;53.97
61436;BME280;47304;47.456;19.160;2023-02-23T07:41:50;100420.65;;;7.67;54.03
61436;BME280;47304;47.456;19.160;2023-02-23T07:44:17;100422.23;;;7.68;53.64
61436;BME280;47304;47.456;19.160;2023-02-23T07:46:44;100421.02;;;7.68;53.79
61436;BME280;47304;47.456;19.160;2023-02-23T07:49:11;100418.27;;;7.72;53.79
61436;BME280;47304;47.456;19.160;2023-02-23T07:51:38;100415.55;;;7.78;53.84
61436;BME280;47304;47.456;19.160;2023-02-23T07:54:05;100414.77;;;7.84;53.78
61436;BME280;47304;47.456;19.160;2023-02-23T07:56:32;100419.38;;;7.90;53.92
61436;BME280;47304;47.456;19.160;2023-02-23T07:58:59;100413.64;;;7.93;53.63
61436;BME280;47304;47.456;19.160;2023-02-23T08:01:25;100414.04;;;7.97;53.60
61436;BME280;47304;47.456;19.160;2023-02-23T08:03:52;100417.92;;;8.02;53.44
61436;BME280;47304;47.456;19.160;2023-02-23T08:06:19;100415.88;;;8.07;53.21
61436;BME280;47304;47.456;19.160;2023-02-23T08:08:46;100417.13;;;8.09;52.69
61436;BME280;47304;47.456;19.160;2023-02-23T08:11:12;100414.52;;;8.11;52.78
61436;BME280;47304;47.456;19.160;2023-02-23T08:13:39;100415.80;;;8.16;52.76
61436;BME280;47304;47.456;19.160;2023-02-23T08:16:06;100420.04;;;8.21;52.93
61436;BME280;47304;47.456;19.160;2023-02-23T08:18:32;100419.02;;;8.25;52.99
61436;BME280;47304;47.456;19.160;2023-02-23T08:21:00;100422.57;;;8.30;52.60
61436;BME280;47304;47.456;19.160;2023-02-23T08:23:31;100422.27;;;8.34;52.25
61436;BME280;47304;47.456;19.160;2023-02-23T08:25:59;100423.52;;;8.39;52.03
61436;BME280;47304;47.456;19.160;2023-02-23T08:28:27;100426.55;;;8.45;51.85
61436;BME280;47304;47.456;19.160;2023-02-23T08:30:54;100424.18;;;8.50;51.35
61436;BME280;47304;47.456;19.160;2023-02-23T08:33:21;100427.52;;;8.52;51.20
61436;BME280;47304;47.456;19.160;2023-02-23T08:35:47;100431.20;;;8.54;51.02
61436;BME280;47304;47.456;19.160;2023-02-23T08:38:14;100428.09;;;8.57;51.04
61436;BME280;47304;47.456;19.160;2023-02-23T08:40:41;100431.42;;;8.59;51.08
61436;BME280;47304;47.456;19.160;2023-02-23T08:43:07;100434.05;;;8.61;50.81
61436;BME280;47304;47.456;19.160;2023-02-23T08:45:34;100435.80;;;8.62;50.78
61436;BME280;47304;47.456;19.160;2023-02-23T08:48:00;100440.71;;;8.62;50.49
61436;BME280;47304;47.456;19.160;2023-02-23T08:50:27;100439.13;;;8.62;50.47
61436;BME280;47304;47.456;19.160;2023-02-23T08:52:53;100439.50;;;8.65;50.77
61436;BME280;47304;47.456;19.160;2023-02-23T08:55:20;100442.67;;;8.68;50.55
61436;BME280;47304;47.456;19.160;2023-02-23T08:57:46;100438.84;;;8.71;50.49
61436;BME280;47304;47.456;19.160;2023-02-23T09:00:13;100440.14;;;8.77;50.64
61436;BME280;47304;47.456;19.160;2023-02-23T09:02:40;100443.50;;;8.84;50.29
61436;BME280;47304;47.456;19.160;2023-02-23T09:05:07;100443.36;;;8.90;49.82
61436;BME280;47304;47.456;19.160;2023-02-23T09:07:36;100444.09;;;8.92;49.78
61436;BME280;47304;47.456;19.160;2023-02-23T09:10:03;100445.48;;;8.94;49.64
61436;BME280;47304;47.456;19.160;2023-02-23T09:12:30;100444.13;;;8.97;49.65
61436;BME280;47304;47.456;19.160;2023-02-23T09:14:56;100442.91;;;9.01;49.51
61436;BME280;47304;47.456;19.160;2023-02-23T09:17:23;100445.40;;;9.05;49.52
61436;BME280;47304;47.456;19.160;2023-02-23T09:19:49;100450.15;;;9.09;49.32
61436;BME280;47304;47.456;19.160;2023-02-23T09:22:16;100444.59;;;9.12;49.16
61436;BME280;47304;47.456;19.160;2023-02-23T09:24:43;100443.73;;;9.17;49.26
61436;BME280;47304;47.456;19.160;2023-02-23T09:27:09;100444.11;;;9.20;49.11
61436;BME280;47304;47.456;19.160;2023-02-23T09:29:36;100446.77;;;9.26;48.88
61436;BME280;47304;47.456;19.160;2023-02-23T09:32:03;100444.02;;;9.33;49.00
61436;BME280;47304;47.456;19.160;2023-02-23T09:34:29;100447.73;;;9.42;48.97
61436;BME280;47304;47.456;19.160;2023-02-23T09:36:56;100448.99;;;9.49;48.57
61436;BME280;47304;47.456;19.160;2023-02-23T09:39:22;100447.27;;;9.54;48.42
61436;BME280;47304;47.456;19.160;2023-02-23T09:42:08;100447.48;;;9.61;48.37
61436;BME280;47304;47.456;19.160;2023-02-23T09:47:31;100448.39;;;9.68;48.28
61436;BME280;47304;47.456;19.160;2023-02-23T09:50:02;100451.02;;;9.70;48.29
61436;BME280;47304;47.456;19.160;2023-02-23T09:52:39;100450.52;;;9.77;48.20
61436;BME280;47304;47.456;19.160;2023-02-23T09:55:10;100450.91;;;9.87;48.08
61436;BME280;47304;47.456;19.160;2023-02-23T09:57:41;100453.21;;;9.94;47.99
61436;BME280;47304;47.456;19.160;2023-02-23T10:02:58;100453.58;;;10.02;47.54
61436;BME280;47304;47.456;19.160;2023-02-23T10:05:29;100448.50;;;10.02;47.07
61436;BME280;47304;47.456;19.160;2023-02-23T10:21:53;100451.25;;;10.40;47.26
61436;BME280;47304;47.456;19.160;2023-02-23T10:24:29;100448.30;;;10.49;46.99
61436;BME280;47304;47.456;19.160;2023-02-23T10:27:15;100446.54;;;10.55;46.43
61436;BME280;47304;47.456;19.160;2023-02-23T10:29:51;100442.87;;;10.60;45.54
61436;BME280;47304;47.456;19.160;2023-02-23T10:35:27;100441.65;;;10.67;45.62
61436;BME280;47304;47.456;19.160;2023-02-23T10:37:55;100439.89;;;10.72;45.97
61436;BME280;47304;47.456;19.160;2023-02-23T10:40:25;100433.59;;;10.74;46.04
61436;BME280;47304;47.456;19.160;2023-02-23T10:42:54;100430.45;;;10.77;45.89
61436;BME280;47304;47.456;19.160;2023-02-23T10:45:25;100429.55;;;10.81;46.48
61436;BME280;47304;47.456;19.160;2023-02-23T10:47:53;100426.05;;;10.84;46.20
61436;BME280;47304;47.456;19.160;2023-02-23T10:50:20;100422.02;;;10.85;45.53
61436;BME280;47304;47.456;19.160;2023-02-23T10:52:49;100421.48;;;10.89;45.17
61436;BME280;47304;47.456;19.160;2023-02-23T10:55:23;100417.46;;;10.92;45.12
61436;BME280;47304;47.456;19.160;2023-02-23T10:58:04;100410.61;;;10.96;44.57
61436;BME280;47304;47.456;19.160;2023-02-23T11:00:37;100409.92;;;10.98;44.44
61436;BME280;47304;47.456;19.160;2023-02-23T11:03:17;100407.29;;;10.99;44.78
61436;BME280;47304;47.456;19.160;2023-02-23T11:05:47;100401.48;;;11.05;45.18
61436;BME280;47304;47.456;19.160;2023-02-23T11:08:31;100401.66;;;11.10;44.76
61436;BME280;47304;47.456;19.160;2023-02-23T11:13:43;100392.86;;;11.16;44.31
61436;BME280;47304;47.456;19.160;2023-02-23T11:16:20;100389.02;;;11.14;44.65
61436;BME280;47304;47.456;19.160;2023-02-23T11:18:53;100387.45;;;11.12;44.25
61436;BME280;47304;47.456;19.160;2023-02-23T11:21:36;100384.83;;;11.11;44.39
61436;BME280;47304;47.456;19.160;2023-02-23T11:24:24;100386.40;;;11.12;44.05
61436;BME280;47304;47.456;19.160;2023-02-23T11:26:53;100384.66;;;11.07;43.81
61436;BME280;47304;47.456;19.160;2023-02-23T11:29:45;100378.70;;;11.04;44.16
61436;BME280;47304;47.456;19.160;2023-02-23T11:32:19;100379.92;;;11.04;43.97
61436;BME280;47304;47.456;19.160;2023-02-23T11:37:42;100376.42;;;11.01;44.39
61436;BME280;47304;47.456;19.160;2023-02-23T11:40:29;100376.26;;;11.02;44.50
61436;BME280;47304;47.456;19.160;2023-02-23T11:43:16;100377.83;;;11.05;44.58
61436;BME280;47304;47.456;19.160;2023-02-23T11:45:45;100372.74;;;11.04;44.52
61436;BME280;47304;47.456;19.160;2023-02-23T11:48:26;100368.52;;;11.06;44.70
61436;BME280;47304;47.456;19.160;2023-02-23T11:50:54;100370.45;;;11.07;44.70
61436;BME280;47304;47.456;19.160;2023-02-23T11:53:34;100369.05;;;11.08;44.74
61436;BME280;47304;47.456;19.160;2023-02-23T11:56:03;100364.67;;;11.06;44.44
61436;BME280;47304;47.456;19.160;2023-02-23T11:58:37;100366.78;;;11.04;44.93
61436;BME280;47304;47.456;19.160;2023-02-23T12:01:07;100366.77;;;11.03;45.18
61436;BME280;47304;47.456;19.160;2023-02-23T12:03:35;100364.32;;;11.02;45.04
61436;BME280;47304;47.456;19.160;2023-02-23T12:06:01;100363.81;;;10.99;44.81
61436;BME280;47304;47.456;19.160;2023-02-23T12:08:36;100363.83;;;10.92;44.56
61436;BME280;47304;47.456;19.160;2023-02-23T12:11:10;100358.57;;;10.88;44.75
61436;BME280;47304;47.456;19.160;2023-02-23T12:13:43;100357.34;;;10.89;45.22
61436;BME280;47304;47.456;19.160;2023-02-23T12:16:51;100352.61;;;10.90;45.13
61436;BME280;47304;47.456;19.160;2023-02-23T12:19:41;100353.83;;;10.92;45.54
61436;BME280;47304;47.456;19.160;2023-02-23T12:22:13;100351.03;;;10.93;45.28
61436;BME280;47304;47.456;19.160;2023-02-23T12:27:45;100346.45;;;10.98;45.21
61436;BME280;47304;47.456;19.160;2023-02-23T12:33:02;100341.19;;;11.04;45.05
61436;BME280;47304;47.456;19.160;2023-02-23T12:35:43;100335.41;;;11.04;44.86
61436;BME280;47304;47.456;19.160;2023-02-23T12:38:20;100333.30;;;11.05;44.79
61436;BME280;47304;47.456;19.160;2023-02-23T12:40:48;100335.39;;;11.06;44.79
61436;BME280;47304;47.456;19.160;2023-02-23T12:43:24;100331.88;;;11.07;45.09
61436;BME280;47304;47.456;19.160;2023-02-23T12:46:04;100330.30;;;11.14;45.00
61436;BME280;47304;47.456;19.160;2023-02-23T12:51:07;100324.45;;;11.30;44.90
61436;BME280;47304;47.456;19.160;2023-02-23T12:53:41;100322.65;;;11.39;44.44
61436;BME280;47304;47.456;19.160;2023-02-23T12:59:17;100309.07;;;11.55;44.46
61436;BME280;47304;47.456;19.160;2023-02-23T13:01:55;100305.90;;;11.57;44.14
61436;BME280;47304;47.456;19.160;2023-02-23T13:07:19;100302.71;;;11.59;44.46
61436;BME280;47304;47.456;19.160;2023-02-23T13:13:49;100301.23;;;11.73;44.31
61436;BME280;47304;47.456;19.160;2023-02-23T13:16:35;100294.73;;;11.77;44.53
61436;BME280;47304;47.456;19.160;2023-02-23T13:19:09;100298.72;;;11.82;44.60
61436;BME280;47304;47.456;19.160;2023-02-23T13:21:45;100288.70;;;11.83;44.28
61436;BME280;47304;47.456;19.160;2023-02-23T13:24:16;100285.20;;;11.83;44.75
61436;BME280;47304;47.456;19.160;2023-02-23T13:26:58;100285.03;;;11.83;44.31
61436;BME280;47304;47.456;19.160;2023-02-23T13:29:38;100286.61;;;11.82;44.13
61436;BME280;47304;47.456;19.160;2023-02-23T13:32:11;100282.91;;;11.85;44.42
61436;BME280;47304;47.456;19.160;2023-02-23T13:34:58;100280.10;;;11.83;44.36
61436;BME280;47304;47.456;19.160;2023-02-23T13:37:49;100277.48;;;11.81;44.56
61436;BME280;47304;47.456;19.160;2023-02-23T13:40:30;100277.86;;;11.80;44.50
61436;BME280;47304;47.456;19.160;2023-02-23T13:43:09;100277.70;;;11.77;44.76
61436;BME280;47304;47.456;19.160;2023-02-23T13:45:58;100276.14;;;11.74;44.77
61436;BME280;47304;47.456;19.160;2023-02-23T13:48:57;100273.69;;;11.71;44.81
61436;BME280;47304;47.456;19.160;2023-02-23T13:54:05;100269.29;;;11.74;45.08
61436;BME280;47304;47.456;19.160;2023-02-23T13:56:41;100264.34;;;11.79;44.97
61436;BME280;47304;47.456;19.160;2023-02-23T13:59:37;100263.11;;;11.81;44.92
61436;BME280;47304;47.456;19.160;2023-02-23T14:02:32;100260.31;;;11.79;45.00
61436;BME280;47304;47.456;19.160;2023-02-23T14:07:52;100258.64;;;11.67;45.23
61436;BME280;47304;47.456;19.160;2023-02-23T14:10:22;100255.68;;;11.62;45.65
61436;BME280;47304;47.456;19.160;2023-02-23T14:15:44;100258.52;;;11.60;45.63
61436;BME280;47304;47.456;19.160;2023-02-23T14:23:32;100261.38;;;11.49;45.82
61436;BME280;47304;47.456;19.160;2023-02-23T14:26:10;100258.06;;;11.46;46.15
61436;BME280;47304;47.456;19.160;2023-02-23T14:29:06;100260.54;;;11.44;45.84
61436;BME280;47304;47.456;19.160;2023-02-23T14:31:34;100260.04;;;11.39;45.99
61436;BME280;47304;47.456;19.160;2023-02-23T14:34:12;100262.85;;;11.36;46.06
61436;BME280;47304;47.456;19.160;2023-02-23T14:36:42;100258.48;;;11.37;46.02
61436;BME280;47304;47.456;19.160;2023-02-23T14:39:16;100261.08;;;11.40;46.35
61436;BME280;47304;47.456;19.160;2023-02-23T14:42:05;100256.66;;;11.48;46.32